Time;durP1;ratioP1;P1;durP2;ratioP2;P2;SDS_P1;SDS_P2;PMS_P1;PMS_P2;Temp;Humidity;BMP_temperature;BMP_pressure;BME280_temperature;BME280_humidity;BME280_pressure;Samples;Min_cycle;Max_cycle;Signal;HPM_P1;HPM_P2
2022/12/05 00:01:51;;;;;;;13.40;5.10;;;;;;;6.97;94.59;101289.59;4984094;28;20035;-66
2022/12/05 00:04:17;;;;;;;13.60;6.00;;;;;;;7.05;94.35;101283.44;4990919;28;20093;-66
2022/12/05 00:06:42;;;;;;;14.20;5.40;;;;;;;7.08;94.09;101290.84;4979590;28;20446;-66
2022/12/05 00:09:10;;;;;;;8.70;4.80;;;;;;;7.00;94.68;101280.94;4986155;28;20053;-66
2022/12/05 00:11:37;;;;;;;10.38;5.57;;;;;;;7.01;94.34;101271.78;4981158;28;20042;-65
2022/12/05 00:14:04;;;;;;;14.05;6.05;;;;;;;7.01;94.35;101277.16;4978341;28;20118;-66
2022/12/05 00:16:32;;;;;;;11.35;5.68;;;;;;;6.95;95.00;101269.59;4981619;28;20062;-66
2022/12/05 00:19:02;;;;;;;13.48;5.78;;;;;;;6.96;95.10;101276.53;4979431;28;20169;-66
2022/12/05 00:21:30;;;;;;;11.25;5.32;;;;;;;6.93;95.14;101269.91;4975411;28;20038;-65
2022/12/05 00:23:57;;;;;;;13.80;6.35;;;;;;;6.81;95.37;101267.09;4980207;28;20037;-65
2022/12/05 00:26:22;;;;;;;14.98;6.40;;;;;;;6.83;95.88;101264.84;4974605;28;20027;-65
2022/12/05 00:28:48;;;;;;;11.07;5.65;;;;;;;6.94;95.97;101263.47;4979338;28;20100;-65
2022/12/05 00:31:17;;;;;;;10.50;4.55;;;;;;;6.98;95.43;101259.06;4978214;28;20507;-65
2022/12/05 00:33:43;;;;;;;10.07;5.28;;;;;;;7.01;95.34;101260.28;4983389;28;20035;-66
2022/12/05 00:36:15;;;;;;;13.70;5.45;;;;;;;7.03;95.12;101255.41;4982099;28;20091;-65
2022/12/05 00:38:41;;;;;;;12.80;5.93;;;;;;;7.00;95.56;101248.00;4982963;28;20463;-65
2022/12/05 00:41:09;;;;;;;13.25;5.50;;;;;;;7.03;94.85;101247.38;4976683;28;20114;-66
2022/12/05 00:43:35;;;;;;;8.07;4.75;;;;;;;7.01;95.46;101250.38;4972355;28;20038;-66
2022/12/05 00:46:21;;;;;;;14.25;4.78;;;;;;;7.09;95.21;101241.56;4972291;28;20038;-66
2022/12/05 00:48:47;;;;;;;12.48;5.78;;;;;;;7.10;95.23;101248.47;4893792;29;20079;-65
2022/12/05 00:51:27;;;;;;;12.90;6.18;;;;;;;7.09;95.06;101251.47;4922236;29;20068;-65
2022/12/05 00:53:53;;;;;;;12.50;5.60;;;;;;;7.10;95.10;101255.75;4908387;29;20080;-65
2022/12/05 00:56:21;;;;;;;10.23;5.50;;;;;;;7.03;95.41;101253.53;4924988;29;20040;-64
2022/12/05 00:58:48;;;;;;;12.38;5.63;;;;;;;6.91;95.38;101250.69;4921830;29;20027;-65
2022/12/05 01:01:20;;;;;;;12.23;5.95;;;;;;;7.03;95.56;101248.16;4925307;29;20516;-65
2022/12/05 01:03:46;;;;;;;14.20;5.82;;;;;;;7.03;95.37;101258.88;4907780;29;20046;-65
2022/12/05 01:06:13;;;;;;;9.65;5.05;;;;;;;6.98;95.49;101247.53;4925738;29;20048;-65
2022/12/05 01:08:40;;;;;;;10.10;5.25;;;;;;;7.00;95.37;101256.06;4924719;29;20083;-65
2022/12/05 01:11:07;;;;;;;10.82;4.65;;;;;;;7.01;96.10;101250.38;4929824;29;20055;-66
2022/12/05 01:13:33;;;;;;;12.63;5.88;;;;;;;7.01;96.18;101250.38;4916554;29;20102;-65
2022/12/05 01:15:59;;;;;;;14.85;6.28;;;;;;;7.01;96.26;101252.25;4922432;29;20035;-67
2022/12/05 01:18:25;;;;;;;14.20;5.97;;;;;;;7.03;95.80;101244.69;4921615;29;20143;-66
2022/12/05 01:20:51;;;;;;;9.02;5.10;;;;;;;7.05;95.69;101254.00;4922703;29;20040;-65
2022/12/05 01:23:18;;;;;;;11.90;5.63;;;;;;;7.02;95.88;101249.28;4909346;29;20040;-65
2022/12/05 01:25:46;;;;;;;8.70;3.72;;;;;;;7.02;95.61;101251.16;4947275;28;20043;-65
2022/12/05 01:28:12;;;;;;;7.65;4.15;;;;;;;7.07;95.69;101245.63;4980008;28;20039;-65
2022/12/05 01:30:39;;;;;;;10.02;4.15;;;;;;;7.07;95.96;101248.31;4983860;28;20046;-65
2022/12/05 01:33:05;;;;;;;12.90;4.60;;;;;;;7.08;96.05;101242.63;4976171;28;20125;-65
2022/12/05 01:35:32;;;;;;;11.70;4.70;;;;;;;7.16;95.74;101241.84;4974750;28;20074;-65
2022/12/05 01:37:58;;;;;;;8.63;4.20;;;;;;;7.13;95.78;101245.19;4984872;28;20080;-65
2022/12/05 01:40:23;;;;;;;8.35;4.75;;;;;;;7.15;95.74;101239.50;4972666;28;20149;-66
2022/12/05 01:42:51;;;;;;;8.57;4.43;;;;;;;7.16;95.71;101243.75;4982175;28;20045;-65
2022/12/05 01:45:26;;;;;;;13.27;6.07;;;;;;;7.21;95.47;101233.66;4986147;28;20446;-66
2022/12/05 01:47:53;;;;;;;10.57;4.97;;;;;;;7.24;95.16;101234.91;4977050;28;20045;-66
2022/12/05 01:50:18;;;;;;;8.70;4.72;;;;;;;7.15;95.93;101245.66;4978381;28;20406;-66
2022/12/05 01:52:44;;;;;;;13.50;5.20;;;;;;;7.09;95.44;101236.19;4975580;28;20026;-65
2022/12/05 01:55:13;;;;;;;10.45;4.95;;;;;;;7.17;95.47;101243.44;4978719;28;20026;-65
2022/12/05 01:57:39;;;;;;;7.72;4.07;;;;;;;7.05;95.75;101235.25;4977947;28;20045;-66
2022/12/05 02:00:14;;;;;;;11.77;4.20;;;;;;;7.08;96.35;101234.59;4983712;28;20038;-66
2022/12/05 02:02:43;;;;;;;9.43;3.88;;;;;;;7.10;96.29;101240.44;4985669;28;20102;-66
2022/12/05 02:05:21;;;;;;;8.65;4.93;;;;;;;7.12;96.40;101235.56;4987977;28;20038;-65
2022/12/05 02:07:47;;;;;;;8.98;3.75;;;;;;;7.13;96.28;101234.47;4971861;28;20506;-65
2022/12/05 02:10:13;;;;;;;8.38;3.92;;;;;;;7.15;96.47;101232.25;4982044;28;20030;-65
2022/12/05 02:12:39;;;;;;;8.45;3.88;;;;;;;7.15;96.00;101229.56;4979247;28;20490;-65
2022/12/05 02:15:11;;;;;;;13.18;5.47;;;;;;;7.15;96.53;101226.91;4986672;28;20030;-65
2022/12/05 02:17:46;;;;;;;10.07;4.38;;;;;;;7.24;96.03;101227.66;4985793;28;20046;-65
2022/12/05 02:20:40;;;;;;;11.30;5.28;;;;;;;7.13;96.52;101215.72;4978560;28;20030;-65
2022/12/05 02:23:26;;;;;;;5.07;3.88;;;;;;;7.15;96.19;101213.50;4956347;28;20106;-66
2022/12/05 02:25:58;;;;;;;9.43;3.95;;;;;;;7.07;96.98;101211.63;4985731;28;20062;-65
2022/12/05 02:28:39;;;;;;;;;;;;;;;7.19;96.31;101201.06;4982334;28;20038;-65
2022/12/05 02:31:36;;;;;;;9.02;3.80;;;;;;;7.25;96.14;101191.75;4978722;28;20060;-65
2022/12/05 02:34:14;;;;;;;10.15;4.00;;;;;;;7.26;96.41;101197.88;4983638;28;20065;-66
2022/12/05 02:37:01;;;;;;;11.43;5.00;;;;;;;7.17;96.18;101200.59;4993361;28;20042;-66
2022/12/05 02:39:45;;;;;;;16.08;4.38;;;;;;;7.27;96.13;101200.25;4989517;28;20034;-66
2022/12/05 02:42:30;;;;;;;8.18;4.30;;;;;;;7.25;96.40;101201.69;4980013;28;20639;-66
2022/12/05 02:45:04;;;;;;;9.57;3.78;;;;;;;7.34;96.16;101199.00;4981104;28;20035;-65
2022/12/05 02:47:34;;;;;;;11.50;4.53;;;;;;;7.29;96.43;101191.91;4987299;28;20041;-65
2022/12/05 02:50:00;;;;;;;12.73;4.93;;;;;;;7.29;96.30;101195.38;4980998;28;20129;-65
2022/12/05 02:52:27;;;;;;;8.13;4.40;;;;;;;7.31;96.73;101189.69;4979355;28;20046;-64
2022/12/05 02:54:55;;;;;;;8.32;4.15;;;;;;;7.34;96.52;101196.31;4985424;28;20033;-66
2022/12/05 02:57:21;;;;;;;12.98;4.82;;;;;;;7.39;95.93;101190.78;4979020;28;20049;-65
2022/12/05 02:59:46;;;;;;;15.80;5.28;;;;;;;7.24;96.33;101192.84;4989308;28;20042;-65
2022/12/05 03:02:24;;;;;;;10.40;4.07;;;;;;;7.28;96.10;101188.44;4987449;28;20511;-65
2022/12/05 03:04:50;;;;;;;11.00;4.32;;;;;;;7.24;96.62;101186.69;4979462;28;20030;-66
2022/12/05 03:07:18;;;;;;;7.32;4.82;;;;;;;7.29;97.11;101181.19;5002059;28;20041;-65
2022/12/05 03:09:49;;;;;;;10.48;4.28;;;;;;;7.25;96.84;101175.69;4986722;28;20041;-65
2022/12/05 03:12:23;;;;;;;;;;;;;;;7.23;96.84;101175.22;4980563;28;20035;-65
2022/12/05 03:14:59;;;;;;;7.15;3.45;;;;;;;7.27;97.28;101178.03;4980490;28;19983;-65
2022/12/05 03:17:30;;;;;;;8.35;3.72;;;;;;;7.27;97.24;101173.47;4982701;28;20129;-65
2022/12/05 03:20:01;;;;;;;;;;;;;;;7.36;96.75;101184.16;4974428;28;20380;-64
2022/12/05 03:22:45;;;;;;;8.45;3.22;;;;;;;7.39;96.32;101182.72;4980785;28;19918;-64
2022/12/05 03:25:11;;;;;;;8.70;4.28;;;;;;;7.37;96.35;101176.91;4976436;28;20035;-64
2022/12/05 03:27:48;;;;;;;10.18;4.45;;;;;;;7.32;96.53;101192.03;4976811;28;20038;-64
2022/12/05 03:30:17;;;;;;;12.73;4.75;;;;;;;7.32;96.46;101190.47;4981810;28;20027;-64
2022/12/05 03:33:01;;;;;;;11.93;4.13;;;;;;;7.26;97.00;101200.56;4973068;28;20353;-64
2022/12/05 03:35:38;;;;;;;11.45;4.80;;;;;;;7.34;97.25;101196.31;4982105;28;20053;-64
2022/12/05 03:38:09;;;;;;;12.57;5.43;;;;;;;7.40;96.94;101195.81;4977337;28;20046;-65
2022/12/05 03:40:41;;;;;;;;;;;;;;;7.41;97.08;101201.94;4984705;28;20048;-65
2022/12/05 03:43:22;;;;;;;10.73;4.13;;;;;;;7.49;96.50;101190.44;4974734;28;19926;-65
2022/12/05 03:46:03;;;;;;;10.27;5.35;;;;;;;7.38;96.97;101186.50;4973535;28;20117;-65
2022/12/05 03:48:44;;;;;;;11.90;5.07;;;;;;;7.39;96.71;101196.91;4978430;28;20547;-66
2022/12/05 03:51:14;;;;;;;9.02;4.75;;;;;;;7.44;96.43;101191.38;4985019;28;20958;-66
2022/12/05 03:53:50;;;;;;;7.30;4.40;;;;;;;7.44;96.72;101187.91;4976901;28;20034;-66
2022/12/05 03:56:22;;;;;;;10.13;4.80;;;;;;;7.46;96.84;101181.13;4979446;28;20542;-66
2022/12/05 03:58:58;;;;;;;12.80;6.30;;;;;;;7.53;96.35;101183.31;4979498;28;20190;-66
2022/12/05 04:01:27;;;;;;;11.40;5.15;;;;;;;7.53;96.59;101175.28;4970618;28;20031;-66
2022/12/05 04:03:58;;;;;;;10.90;5.20;;;;;;;7.48;96.42;101186.16;4976038;28;20480;-66
2022/12/05 04:06:46;;;;;;;11.63;5.13;;;;;;;7.49;96.72;101182.38;4977670;28;20165;-66
2022/12/05 04:09:18;;;;;;;14.07;4.80;;;;;;;7.41;96.48;101188.56;4975563;28;20387;-66
2022/12/05 04:12:04;;;;;;;10.02;4.72;;;;;;;7.40;97.05;101187.75;4972037;28;20193;-66
2022/12/05 04:14:36;;;;;;;11.63;5.70;;;;;;;7.46;96.45;101186.50;4982339;28;20049;-66
2022/12/05 04:17:21;;;;;;;12.25;4.38;;;;;;;7.46;96.68;101194.53;4975561;28;20058;-66
2022/12/05 04:22:38;;;;;;;14.40;4.83;;;;;;;7.43;96.66;101191.69;4977605;28;20042;-66
2022/12/05 04:28:11;;;;;;;11.95;4.63;;;;;;;7.42;96.64;101195.47;4987175;28;20497;-66
2022/12/05 04:30:49;;;;;;;12.07;5.38;;;;;;;7.34;97.10;101193.63;4978936;28;20039;-66
2022/12/05 04:33:43;;;;;;;11.30;5.50;;;;;;;7.32;96.87;101197.41;4972873;28;20027;-66
2022/12/05 04:36:16;;;;;;;10.57;4.90;;;;;;;7.29;97.42;101198.06;4949193;28;20410;-66
2022/12/05 04:38:53;;;;;;;13.85;4.95;;;;;;;7.38;97.34;101191.88;4971528;28;20042;-66
2022/12/05 04:41:27;;;;;;;10.43;4.47;;;;;;;7.45;96.57;101192.16;4989549;28;20069;-66
2022/12/05 04:43:57;;;;;;;18.58;5.40;;;;;;;7.47;96.72;101185.38;4987414;28;20046;-66
2022/12/05 04:46:23;;;;;;;10.15;5.32;;;;;;;7.49;96.48;101187.75;4990520;28;20451;-66
2022/12/05 04:48:54;;;;;;;10.63;4.30;;;;;;;7.48;96.51;101184.28;4990020;28;20162;-66
2022/12/05 04:51:25;;;;;;;10.52;4.57;;;;;;;7.43;96.95;101178.31;4991221;28;20088;-67
2022/12/05 04:53:58;;;;;;;;;;;;;;;7.43;96.99;101184.47;4992002;28;20026;-66
2022/12/05 04:56:32;;;;;;;11.57;4.07;;;;;;;7.43;97.18;101178.31;4988194;28;19917;-66
2022/12/05 04:58:57;;;;;;;10.70;4.43;;;;;;;7.41;96.70;101170.59;4976653;28;20039;-66
2022/12/05 05:01:41;;;;;;;11.65;4.35;;;;;;;7.37;97.42;101180.38;4977006;28;20048;-67
2022/12/05 05:04:20;;;;;;;12.05;4.35;;;;;;;7.43;96.88;101175.63;4993772;28;20039;-66
2022/12/05 05:06:45;;;;;;;8.43;3.58;;;;;;;7.47;96.42;101185.38;4972029;28;20042;-66
2022/12/05 05:09:11;;;;;;;10.15;4.07;;;;;;;7.47;96.98;101185.38;4971400;28;20037;-66
2022/12/05 05:11:37;;;;;;;8.43;5.03;;;;;;;7.53;96.30;101178.72;4971940;28;20033;-66
2022/12/05 05:14:03;;;;;;;12.30;5.72;;;;;;;7.45;96.58;101181.47;4975707;28;20053;-66
2022/12/05 05:16:36;;;;;;;9.13;3.67;;;;;;;7.42;96.67;101177.53;4971949;28;20396;-66
2022/12/05 05:19:04;;;;;;;16.75;5.68;;;;;;;7.18;97.13;101183.41;4975247;28;20445;-66
2022/12/05 05:21:35;;;;;;;11.20;5.53;;;;;;;7.22;98.35;101186.22;4982885;28;20030;-67
2022/12/05 05:24:01;;;;;;;;;;;;;;;7.26;98.24;101182.59;4974923;28;20074;-66
2022/12/05 05:26:28;;;;;;;8.70;4.78;;;;;;;7.32;97.75;101189.38;4971825;28;19949;-66
2022/12/05 05:28:55;;;;;;;14.60;5.40;;;;;;;7.35;97.80;101187.94;4978526;28;20034;-67
2022/12/05 05:31:21;;;;;;;12.10;4.85;;;;;;;7.32;97.29;101183.22;4986934;28;20121;-67
2022/12/05 05:33:51;;;;;;;15.38;5.88;;;;;;;7.32;97.35;101185.13;4982648;28;20118;-66
2022/12/05 05:36:17;;;;;;;13.63;5.78;;;;;;;7.34;97.63;101182.91;4975304;28;20065;-67
2022/12/05 05:38:45;;;;;;;13.43;4.97;;;;;;;7.41;97.51;101180.53;4976266;28;20117;-66
2022/12/05 05:41:13;;;;;;;12.82;6.75;;;;;;;7.38;97.24;101176.59;4985555;28;20030;-66
2022/12/05 05:43:40;;;;;;;17.30;6.65;;;;;;;7.26;97.18;101177.25;4985497;28;20065;-66
2022/12/05 05:46:06;;;;;;;22.63;6.00;;;;;;;7.06;97.82;101172.59;4993776;28;20104;-66
2022/12/05 05:48:31;;;;;;;12.57;5.88;;;;;;;7.09;97.74;101171.13;4993341;28;20494;-66
2022/12/05 05:51:05;;;;;;;21.48;7.60;;;;;;;6.97;97.86;101187.84;4990192;28;20034;-67
2022/12/05 05:53:30;;;;;;;14.02;5.78;;;;;;;7.03;98.43;101183.91;4990144;28;20022;-66
2022/12/05 05:55:56;;;;;;;16.75;6.80;;;;;;;6.87;98.25;101188.16;4992754;28;20033;-66
2022/12/05 05:58:22;;;;;;;15.93;5.57;;;;;;;6.95;98.70;101187.38;4990456;28;20113;-66
2022/12/05 06:00:47;;;;;;;23.85;5.85;;;;;;;7.02;98.83;101190.38;4986196;28;20061;-66
2022/12/05 06:03:13;;;;;;;13.98;6.20;;;;;;;7.04;98.33;101195.41;4992290;28;20034;-66
2022/12/05 06:05:38;;;;;;;13.40;7.03;;;;;;;7.07;98.65;101187.53;4984287;28;20026;-66
2022/12/05 06:08:04;;;;;;;21.33;7.53;;;;;;;7.21;97.90;101190.81;4983523;28;20034;-66
2022/12/05 06:10:30;;;;;;;14.00;6.25;;;;;;;7.21;97.90;101185.47;4990443;28;20084;-66
2022/12/05 06:12:56;;;;;;;24.60;7.93;;;;;;;7.15;97.76;101192.09;5000873;28;20026;-66
2022/12/05 06:15:43;;;;;;;24.70;7.22;;;;;;;7.10;98.15;101196.81;4987123;28;20038;-66
2022/12/05 06:18:08;;;;;;;25.80;6.78;;;;;;;7.14;97.68;101189.72;4942543;29;20051;-66
2022/12/05 06:20:33;;;;;;;17.17;6.25;;;;;;;7.24;97.98;101184.00;4943793;29;20059;-66
2022/12/05 06:22:59;;;;;;;21.95;7.47;;;;;;;7.20;96.83;101188.47;4936481;29;20146;-66
2022/12/05 06:25:24;;;;;;;13.88;6.95;;;;;;;7.15;97.56;101197.44;4948954;29;20575;-66
2022/12/05 06:27:50;;;;;;;26.55;8.00;;;;;;;7.08;97.67;101191.75;4945349;29;20082;-66
2022/12/05 06:30:15;;;;;;;20.05;6.10;;;;;;;7.06;97.53;101194.00;4932102;29;20208;-66
2022/12/05 06:32:41;;;;;;;14.93;6.18;;;;;;;7.03;97.40;101199.19;4931875;29;20487;-66
2022/12/05 06:35:14;;;;;;;18.48;6.60;;;;;;;7.08;97.58;101202.47;4948019;29;20047;-66
2022/12/05 06:37:40;;;;;;;23.63;8.25;;;;;;;7.03;97.40;101201.84;4930850;29;20043;-66
2022/12/05 06:40:06;;;;;;;19.58;6.85;;;;;;;6.88;97.60;101208.50;4946497;28;20134;-66
2022/12/05 06:42:31;;;;;;;20.95;7.90;;;;;;;6.94;97.40;101203.75;4941192;29;20047;-67
2022/12/05 06:44:57;;;;;;;24.65;8.18;;;;;;;6.93;98.29;101207.56;4950741;29;20069;-66
2022/12/05 06:47:22;;;;;;;29.75;6.80;;;;;;;6.96;97.70;101210.38;4924524;29;20115;-65
2022/12/05 06:49:48;;;;;;;20.38;7.55;;;;;;;6.94;97.72;101206.44;4941792;29;20107;-66
2022/12/05 06:52:13;;;;;;;19.52;6.95;;;;;;;6.84;97.75;101206.75;4932128;29;20035;-65
2022/12/05 06:54:38;;;;;;;26.17;8.43;;;;;;;6.80;98.54;101213.84;4956723;28;20054;-66
2022/12/05 06:57:04;;;;;;;35.40;10.27;;;;;;;6.91;98.24;101215.88;4987120;28;20062;-66
2022/12/05 06:59:29;;;;;;;22.55;6.95;;;;;;;6.81;98.12;101220.78;4989994;28;20069;-66
2022/12/05 07:01:55;;;;;;;28.63;7.72;;;;;;;6.83;97.90;101221.25;4984412;28;20104;-66
2022/12/05 07:04:24;;;;;;;18.60;8.10;;;;;;;6.95;97.59;101216.81;4983967;28;20450;-66
2022/12/05 07:06:51;;;;;;;22.20;7.97;;;;;;;6.86;97.94;101220.63;4978696;28;20072;-66
2022/12/05 07:09:19;;;;;;;18.20;7.47;;;;;;;6.75;97.79;101217.47;4978799;28;20038;-66
2022/12/05 07:11:50;;;;;;;20.95;6.70;;;;;;;6.79;97.96;101215.75;4982192;28;20501;-66
2022/12/05 07:14:17;;;;;;;15.00;6.28;;;;;;;6.83;97.08;101215.91;4990484;28;20479;-66
2022/12/05 07:16:42;;;;;;;15.98;6.07;;;;;;;6.73;97.60;101211.66;4972898;28;20026;-66
2022/12/05 07:19:11;;;;;;;14.23;5.40;;;;;;;6.69;97.74;101210.72;4986626;28;20490;-66
2022/12/05 07:21:36;;;;;;;14.85;6.78;;;;;;;6.71;98.02;101211.19;4975671;28;20045;-66
2022/12/05 07:24:02;;;;;;;18.92;7.38;;;;;;;6.76;97.10;101210.22;4978402;28;20031;-66
2022/12/05 07:26:28;;;;;;;19.15;6.15;;;;;;;6.70;97.02;101211.47;4974490;28;20126;-66
2022/12/05 07:28:56;;;;;;;17.95;7.07;;;;;;;6.74;97.32;101212.41;4984075;28;20084;-66
2022/12/05 07:31:22;;;;;;;19.95;5.80;;;;;;;6.69;97.35;101213.38;4984216;28;20038;-66
2022/12/05 07:33:48;;;;;;;14.15;5.72;;;;;;;6.65;97.19;101215.13;4978057;28;20543;-66
2022/12/05 07:36:17;;;;;;;18.25;5.63;;;;;;;6.67;97.04;101220.16;4978049;28;20426;-66
2022/12/05 07:38:43;;;;;;;10.23;5.10;;;;;;;6.63;96.85;101214.63;4981383;28;20034;-66
2022/12/05 07:41:31;;;;;;;18.73;5.95;;;;;;;6.50;96.20;101214.78;4984383;28;20034;-66
2022/12/05 07:43:58;;;;;;;16.25;5.85;;;;;;;6.51;96.27;101219.81;4992400;28;20038;-67
2022/12/05 07:46:24;;;;;;;18.42;5.07;;;;;;;6.54;97.08;101213.06;4992475;28;20407;-67
2022/12/05 07:48:50;;;;;;;15.82;5.68;;;;;;;6.55;96.65;101207.38;4990585;28;20019;-66
2022/12/05 07:51:16;;;;;;;15.25;5.25;;;;;;;6.56;96.55;101210.84;4992124;28;20057;-67
2022/12/05 07:53:43;;;;;;;16.90;6.93;;;;;;;6.53;96.22;101204.25;4992311;28;20155;-67
2022/12/05 07:56:13;;;;;;;13.93;5.75;;;;;;;6.43;96.47;101212.56;4989237;28;20019;-66
2022/12/05 07:58:39;;;;;;;13.45;6.18;;;;;;;6.42;96.26;101216.34;4991739;28;20045;-66
2022/12/05 08:01:06;;;;;;;15.25;6.80;;;;;;;6.52;96.69;101216.06;4986898;28;20043;-66
2022/12/05 08:03:32;;;;;;;17.50;7.30;;;;;;;6.46;95.73;101222.66;4986153;28;20030;-66
2022/12/05 08:06:06;;;;;;;13.55;5.95;;;;;;;6.46;96.23;101211.94;4984333;28;20035;-66
2022/12/05 08:08:31;;;;;;;14.38;6.18;;;;;;;6.39;95.32;101214.28;4991887;28;20046;-66
2022/12/05 08:11:06;;;;;;;21.02;7.05;;;;;;;6.41;96.13;101220.09;4991589;28;20033;-66
2022/12/05 08:13:32;;;;;;;13.68;5.70;;;;;;;6.37;96.19;101213.81;4991577;28;20438;-66
2022/12/05 08:16:03;;;;;;;10.75;5.43;;;;;;;6.42;96.08;101212.88;4984261;28;20089;-67
2022/12/05 08:18:28;;;;;;;19.38;6.18;;;;;;;6.37;95.94;101219.16;4983386;28;20038;-67
2022/12/05 08:20:54;;;;;;;14.00;6.13;;;;;;;6.31;96.06;101221.19;4985618;28;20038;-67
2022/12/05 08:23:19;;;;;;;12.00;5.80;;;;;;;6.27;95.12;101217.56;4985401;28;20549;-66
2022/12/05 08:25:45;;;;;;;17.73;6.05;;;;;;;6.38;95.75;101218.06;4984065;28;20034;-67
2022/12/05 08:28:10;;;;;;;18.40;7.18;;;;;;;6.44;95.15;101224.84;4977474;28;20503;-66
2022/12/05 08:30:35;;;;;;;16.02;5.03;;;;;;;6.41;95.06;101225.47;4990775;28;20068;-67
2022/12/05 08:33:01;;;;;;;15.98;4.97;;;;;;;6.46;95.15;101227.22;4985277;28;20037;-67
2022/12/05 08:35:26;;;;;;;13.85;5.25;;;;;;;6.38;94.03;101231.44;4983095;28;20031;-68
2022/12/05 08:37:52;;;;;;;15.27;6.47;;;;;;;6.31;94.48;101231.88;4990679;28;20052;-67
2022/12/05 08:40:18;;;;;;;14.65;4.93;;;;;;;6.37;94.58;101235.19;4981258;28;20426;-66
2022/12/05 08:42:43;;;;;;;16.00;6.28;;;;;;;6.43;94.09;101235.88;4988327;28;20034;-66
2022/12/05 08:45:09;;;;;;;15.48;5.45;;;;;;;6.39;94.98;101243.69;5000187;28;20044;-67
2022/12/05 08:47:35;;;;;;;15.82;4.13;;;;;;;6.43;94.35;101247.34;4981601;28;20101;-67
2022/12/05 08:50:00;;;;;;;13.32;5.35;;;;;;;6.32;94.09;101254.88;4978237;28;20125;-66
2022/12/05 08:52:25;;;;;;;11.90;4.60;;;;;;;6.35;94.07;101243.53;4964391;28;20042;-67
2022/12/05 08:54:51;;;;;;;14.13;4.88;;;;;;;6.28;94.21;101251.25;4977234;28;20034;-67
2022/12/05 08:57:16;;;;;;;21.08;5.13;;;;;;;6.38;94.83;101252.84;4981019;28;20042;-66
2022/12/05 08:59:42;;;;;;;13.57;5.18;;;;;;;6.41;94.58;101257.56;4983107;28;20049;-67
2022/12/05 09:02:09;;;;;;;19.90;5.68;;;;;;;6.43;94.13;101254.59;4982752;28;20092;-66
2022/12/05 09:04:34;;;;;;;14.27;5.82;;;;;;;6.43;94.70;101255.34;4985237;28;20034;-67
2022/12/05 09:07:01;;;;;;;15.68;4.97;;;;;;;6.45;93.29;101258.50;4973534;28;20134;-66
2022/12/05 09:09:27;;;;;;;12.85;4.68;;;;;;;6.44;93.37;101254.28;4965954;28;20042;-67
2022/12/05 09:11:52;;;;;;;11.85;4.97;;;;;;;6.56;93.90;101248.31;4972349;28;20077;-67
2022/12/05 09:14:18;;;;;;;14.02;5.82;;;;;;;6.46;93.68;101254.75;4985879;28;20096;-67
2022/12/05 09:16:45;;;;;;;17.17;4.50;;;;;;;6.39;93.79;101254.41;4985593;28;20042;-67
2022/12/05 09:19:15;;;;;;;10.38;4.25;;;;;;;6.50;93.90;101247.69;4985003;28;20053;-66
2022/12/05 09:21:41;;;;;;;13.50;5.80;;;;;;;6.42;93.75;101251.13;4985440;28;20450;-67
2022/12/05 09:24:07;;;;;;;9.40;4.75;;;;;;;6.35;94.14;101243.53;4987465;28;20033;-67
2022/12/05 09:26:32;;;;;;;13.65;5.13;;;;;;;6.45;93.88;101253.16;4987439;28;20034;-66
2022/12/05 09:29:01;;;;;;;10.45;5.28;;;;;;;6.43;93.55;101255.34;4986841;28;20061;-67
2022/12/05 09:31:26;;;;;;;15.23;5.07;;;;;;;6.45;94.26;101250.47;4988224;28;20030;-67
2022/12/05 09:33:52;;;;;;;11.90;5.32;;;;;;;6.52;93.89;101253.50;4982932;28;20038;-67
2022/12/05 09:36:21;;;;;;;15.93;5.60;;;;;;;6.52;93.95;101248.16;4987525;28;20038;-67
2022/12/05 09:38:50;;;;;;;15.82;5.82;;;;;;;6.54;94.08;101250.50;4984308;28;20100;-67
2022/12/05 09:44:48;;;;;;;13.55;5.72;;;;;;;6.34;94.87;101247.34;4983393;28;20034;-67
2022/12/05 09:47:20;;;;;;;21.55;5.88;;;;;;;6.43;94.55;101241.22;4986258;28;20754;-66
2022/12/05 09:49:58;;;;;;;9.77;5.05;;;;;;;6.49;94.61;101232.72;4983356;28;20114;-66
2022/12/05 09:52:34;;;;;;;14.25;5.47;;;;;;;6.62;94.07;101247.06;4987694;28;20446;-67
2022/12/05 09:55:13;;;;;;;10.20;4.50;;;;;;;6.50;94.26;101239.66;4987423;28;20585;-66
2022/12/05 09:57:44;;;;;;;6.82;3.70;;;;;;;6.56;93.69;101232.25;4983892;28;20066;-66
2022/12/05 10:00:10;;;;;;;9.90;4.28;;;;;;;6.53;93.92;101231.00;4985690;28;20034;-66
2022/12/05 10:03:05;;;;;;;13.57;6.32;;;;;;;6.66;93.70;101237.31;4988710;28;20029;-65
2022/12/05 10:05:56;;;;;;;14.90;5.13;;;;;;;6.65;93.69;101230.38;4979516;28;20058;-66
2022/12/05 10:08:31;;;;;;;11.85;4.70;;;;;;;6.65;93.37;101230.38;4971161;28;20054;-66
2022/12/05 10:11:05;;;;;;;12.90;5.15;;;;;;;6.61;93.98;101232.09;4987018;28;20749;-66
2022/12/05 10:13:59;;;;;;;12.00;4.80;;;;;;;6.62;93.83;101241.72;4988495;28;20033;-66
2022/12/05 10:16:31;;;;;;;15.30;4.57;;;;;;;6.74;93.38;101241.84;4988039;28;20069;-66
2022/12/05 10:19:09;;;;;;;8.93;4.47;;;;;;;6.68;93.28;101241.22;4988645;28;20049;-66
2022/12/05 10:21:49;;;;;;;12.85;5.13;;;;;;;6.68;93.96;101232.44;5003313;28;20056;-66
2022/12/05 10:24:30;;;;;;;18.25;6.57;;;;;;;6.69;93.45;101221.41;4990607;28;20280;-66
2022/12/05 10:27:05;;;;;;;9.15;4.25;;;;;;;6.68;94.20;101219.81;4989446;28;20034;-66
2022/12/05 10:29:58;;;;;;;15.60;5.28;;;;;;;6.61;94.27;101224.88;5003890;28;20042;-66
2022/12/05 10:32:40;;;;;;;11.27;4.35;;;;;;;6.66;94.44;101222.03;4982054;28;20525;-66
2022/12/05 10:35:19;;;;;;;13.18;4.60;;;;;;;6.63;94.08;101219.19;4992765;28;20035;-66
2022/12/05 10:37:48;;;;;;;10.93;4.57;;;;;;;6.61;93.92;101210.69;4989300;28;20531;-66
2022/12/05 10:40:15;;;;;;;10.43;4.53;;;;;;;6.68;94.31;101214.47;4991791;28;20030;-66
2022/12/05 10:42:41;;;;;;;10.65;4.72;;;;;;;6.65;94.05;101208.97;4975083;28;20030;-66
2022/12/05 10:45:14;;;;;;;9.73;4.30;;;;;;;6.61;94.17;101219.50;4991998;28;20039;-66
2022/12/05 10:47:39;;;;;;;9.75;4.88;;;;;;;6.59;94.42;101210.22;4983045;28;20035;-67
2022/12/05 10:50:18;;;;;;;9.95;4.43;;;;;;;6.61;94.04;101206.13;4987822;28;20029;-66
2022/12/05 10:52:45;;;;;;;9.85;4.05;;;;;;;6.65;94.32;101209.75;4993009;28;20034;-65
2022/12/05 10:55:15;;;;;;;8.35;4.53;;;;;;;6.70;94.17;101211.47;4991830;28;20121;-66
2022/12/05 10:57:40;;;;;;;9.98;4.72;;;;;;;6.68;94.38;101209.13;4984303;28;20038;-66
2022/12/05 11:00:14;;;;;;;10.38;4.35;;;;;;;6.66;94.17;101210.56;4986459;28;20042;-66
2022/12/05 11:02:41;;;;;;;10.35;3.75;;;;;;;6.65;94.80;101209.75;4987583;28;20042;-66
2022/12/05 11:05:07;;;;;;;13.25;4.90;;;;;;;6.71;94.42;101219.22;4984812;28;20026;-66
2022/12/05 11:07:57;;;;;;;9.25;4.28;;;;;;;6.70;93.73;101204.25;4989956;28;20030;-66
2022/12/05 11:10:31;;;;;;;8.73;3.40;;;;;;;6.70;94.06;101204.25;4987429;28;20058;-66
2022/12/05 11:12:58;;;;;;;9.85;4.18;;;;;;;6.67;94.69;101202.22;4986251;28;20035;-66
2022/12/05 11:15:26;;;;;;;14.25;4.45;;;;;;;6.71;94.48;101202.34;4989705;28;20068;-66
2022/12/05 11:17:54;;;;;;;7.97;4.53;;;;;;;6.74;94.24;101196.38;4990893;28;20038;-66
2022/12/05 11:20:19;;;;;;;11.50;4.25;;;;;;;6.78;93.89;101192.75;4987481;28;20034;-66
2022/12/05 11:22:48;;;;;;;13.82;4.50;;;;;;;6.81;93.96;101189.47;4991569;28;20034;-66
2022/12/05 11:25:24;;;;;;;11.63;5.00;;;;;;;6.79;93.75;101193.53;4993393;28;20117;-66
2022/12/05 11:27:50;;;;;;;12.88;3.92;;;;;;;6.68;93.66;101198.41;4988298;28;20141;-66
2022/12/05 11:30:21;;;;;;;10.07;4.53;;;;;;;6.71;93.92;101203.16;4974689;28;20120;-65
2022/12/05 11:32:48;;;;;;;11.65;4.60;;;;;;;6.66;94.56;101197.94;4988875;28;20076;-66
2022/12/05 11:35:27;;;;;;;10.52;3.95;;;;;;;6.68;94.77;101193.06;4990169;28;20049;-66
2022/12/05 11:38:04;;;;;;;9.50;3.88;;;;;;;6.71;93.79;101187.09;4990899;28;20031;-66
2022/12/05 11:40:41;;;;;;;11.98;4.22;;;;;;;6.73;94.11;101184.09;4996104;28;20042;-66
2022/12/05 11:43:16;;;;;;;9.45;3.58;;;;;;;6.69;93.79;101178.59;4973542;28;20094;-66
2022/12/05 11:45:59;;;;;;;9.68;3.78;;;;;;;6.66;93.95;101173.84;4987446;28;20382;-66
2022/12/05 11:48:43;;;;;;;7.32;3.15;;;;;;;6.67;94.63;101174.66;4988739;28;20061;-66
2022/12/05 11:51:22;;;;;;;6.72;3.90;;;;;;;6.79;93.73;101180.97;4972884;28;20046;-66
2022/12/05 11:54:15;;;;;;;9.70;3.88;;;;;;;6.83;93.97;101171.16;4992084;28;20416;-66